createdAt,value
2019-03-01T00:01:02.081Z,98840.36
2019-03-01T00:03:31.609Z,98847.23
2019-03-01T00:06:28.478Z,98845.91
2019-03-01T00:09:57.373Z,98849.50
2019-03-01T00:12:59.818Z,98853.36
2019-03-01T00:16:30.859Z,98857.98
2019-03-01T00:19:46.100Z,98862.14
2019-03-01T00:22:46.755Z,98866.58
2019-03-01T00:25:50.196Z,98862.34
2019-03-01T00:28:54.797Z,98862.52
2019-03-01T00:31:38.812Z,98865.16
2019-03-01T00:34:49.028Z,98867.88
2019-03-01T00:37:55.385Z,98862.61
2019-03-01T00:40:44.048Z,98853.47
2019-03-01T00:43:42.725Z,98846.40
2019-03-01T00:46:12.027Z,98837.05
2019-03-01T00:48:42.834Z,98837.34
2019-03-01T00:51:12.036Z,98831.97
2019-03-01T00:53:41.777Z,98826.41
2019-03-01T00:56:11.526Z,98830.94
2019-03-01T00:58:41.296Z,98826.98
2019-03-01T01:01:11.256Z,98822.27
2019-03-01T01:03:42.218Z,98814.05
2019-03-01T01:06:12.794Z,98815.47
2019-03-01T01:08:44.183Z,98823.36
2019-03-01T01:11:14.410Z,98808.12
2019-03-01T01:13:45.670Z,98807.47
2019-03-01T01:16:15.432Z,98802.61
2019-03-01T01:18:44.887Z,98794.02
2019-03-01T01:21:16.441Z,98784.96
2019-03-01T01:23:46.370Z,98781.48
2019-03-01T01:26:17.582Z,98776.11
2019-03-01T01:28:47.324Z,98771.69
2019-03-01T01:31:17.381Z,98771.84
2019-03-01T01:33:47.029Z,98777.89
2019-03-01T01:36:18.524Z,98768.46
2019-03-01T01:38:48.984Z,98763.86
2019-03-01T01:41:19.382Z,98760.27
2019-03-01T01:43:48.910Z,98756.43
2019-03-01T01:46:21.898Z,98760.27
2019-03-01T01:48:52.807Z,98750.20
2019-03-01T01:51:24.668Z,98753.32
2019-03-01T01:53:54.983Z,98759.73
2019-03-01T01:56:29.994Z,98753.69
2019-03-01T01:59:03.491Z,98752.42
2019-03-01T02:01:34.009Z,98753.06
2019-03-01T02:04:03.222Z,98747.03
2019-03-01T02:06:32.668Z,98742.30
2019-03-01T02:09:02.650Z,98743.98
2019-03-01T02:11:32.711Z,98743.34
2019-03-01T02:14:03.155Z,98738.27
2019-03-01T02:16:32.381Z,98739.45
2019-03-01T02:19:01.899Z,98740.80
2019-03-01T02:21:31.436Z,98735.59
2019-03-01T02:24:00.670Z,98731.06
2019-03-01T02:26:31.961Z,98722.98
2019-03-01T02:29:01.859Z,98724.12
2019-03-01T02:31:31.364Z,98717.12
2019-03-01T02:34:01.607Z,98722.39
2019-03-01T02:36:31.100Z,98717.22
2019-03-01T02:39:01.634Z,98718.23
2019-03-01T02:41:32.150Z,98720.60
2019-03-01T02:44:02.118Z,98714.19
2019-03-01T02:46:31.931Z,98716.19
2019-03-01T02:49:02.371Z,98712.31
2019-03-01T02:51:32.122Z,98713.26
2019-03-01T02:54:05.575Z,98713.53
2019-03-01T02:56:35.925Z,98708.36
2019-03-01T02:59:05.395Z,98706.20
2019-03-01T03:01:35.067Z,98709.97
2019-03-01T03:04:05.435Z,98698.20
2019-03-01T03:06:41.834Z,98702.44
2019-03-01T03:09:12.664Z,98701.31
2019-03-01T03:11:46.598Z,98694.98
2019-03-01T03:14:17.882Z,98690.93
2019-03-01T03:16:47.364Z,98696.89
2019-03-01T03:19:16.833Z,98696.22
2019-03-01T03:21:49.445Z,98689.63
2019-03-01T03:24:21.969Z,98688.41
2019-03-01T03:26:53.855Z,98680.95
2019-03-01T03:29:24.055Z,98680.02
2019-03-01T03:31:53.235Z,98676.13
2019-03-01T03:34:22.665Z,98672.95
2019-03-01T03:36:52.744Z,98674.47
2019-03-01T03:39:22.220Z,98670.05
2019-03-01T03:41:54.325Z,98675.22
2019-03-01T03:44:24.337Z,98674.37
2019-03-01T03:46:58.409Z,98673.05
2019-03-01T03:49:28.901Z,98675.48
2019-03-01T03:52:00.243Z,98676.61
2019-03-01T03:54:32.662Z,98683.41
2019-03-01T03:57:02.713Z,98680.29
2019-03-01T03:59:34.367Z,98679.34
2019-03-01T04:02:03.893Z,98672.75
2019-03-01T04:04:34.177Z,98677.38
2019-03-01T04:07:03.753Z,98672.20
2019-03-01T04:09:33.741Z,98670.01
2019-03-01T04:12:03.200Z,98666.16
2019-03-01T04:14:33.211Z,98671.44
2019-03-01T04:17:03.170Z,98665.58
2019-03-01T04:19:33.130Z,98660.88
2019-03-01T04:22:02.326Z,98662.39
2019-03-01T04:24:32.280Z,98656.64
2019-03-01T04:27:01.486Z,98654.86
2019-03-01T04:29:30.971Z,98651.74
2019-03-01T04:32:00.886Z,98651.27
2019-03-01T04:34:30.860Z,98644.78
2019-03-01T04:37:01.306Z,98640.92
2019-03-01T04:39:31.098Z,98647.41
2019-03-01T04:42:02.375Z,98641.87
2019-03-01T04:44:31.552Z,98632.80
2019-03-01T04:47:01.828Z,98639.88
2019-03-01T04:49:33.807Z,98636.55
2019-03-01T04:52:31.964Z,98628.78
2019-03-01T04:55:02.486Z,98626.98
2019-03-01T04:57:34.070Z,98633.48
2019-03-01T05:00:03.316Z,98622.73
2019-03-01T05:02:32.800Z,98628.20
2019-03-01T05:05:03.662Z,98624.15
2019-03-01T05:07:33.654Z,98615.22
2019-03-01T05:10:06.439Z,98614.48
2019-03-01T05:12:35.616Z,98614.27
2019-03-01T05:15:06.418Z,98616.16
2019-03-01T05:17:35.681Z,98614.64
2019-03-01T05:20:05.063Z,98625.12
2019-03-01T05:22:34.789Z,98624.55
2019-03-01T05:25:05.173Z,98618.23
2019-03-01T05:27:37.151Z,98617.38
2019-03-01T05:30:08.053Z,98614.94
2019-03-01T05:32:41.285Z,98617.38
2019-03-01T05:35:11.953Z,98614.44
2019-03-01T05:37:41.421Z,98624.72
2019-03-01T05:40:11.907Z,98627.56
2019-03-01T05:42:44.420Z,98626.69
2019-03-01T05:45:18.353Z,98621.58
2019-03-01T05:47:47.853Z,98625.83
2019-03-01T05:50:18.092Z,98623.59
2019-03-01T05:52:48.027Z,98619.33
2019-03-01T05:55:17.608Z,98615.83
2019-03-01T05:58:22.608Z,98609.66
2019-03-01T06:00:53.094Z,98618.16
2019-03-01T06:04:06.073Z,98623.28
2019-03-01T06:06:40.120Z,98619.89
2019-03-01T06:09:32.011Z,98622.45
2019-03-01T06:12:40.038Z,98628.84
2019-03-01T06:15:44.852Z,98623.94
2019-03-01T06:18:56.752Z,98623.30
2019-03-01T06:22:21.618Z,98627.90
2019-03-01T06:25:08.384Z,98628.74
2019-03-01T06:28:10.376Z,98630.53
2019-03-01T06:30:56.854Z,98631.75
2019-03-01T06:33:51.358Z,98624.14
2019-03-01T06:36:58.980Z,98631.41
2019-03-01T06:40:01.578Z,98629.12
2019-03-01T06:43:16.284Z,98627.89
2019-03-01T06:46:25.905Z,98626.03
2019-03-01T06:49:07.880Z,98627.52
2019-03-01T06:51:38.627Z,98630.84
2019-03-01T06:54:14.215Z,98636.02
2019-03-01T06:56:44.163Z,98633.85
2019-03-01T06:59:13.387Z,98629.89
2019-03-01T07:01:43.766Z,98628.27
2019-03-01T07:04:17.757Z,98626.41
2019-03-01T07:06:47.199Z,98630.91
2019-03-01T07:09:18.602Z,98636.39
2019-03-01T07:11:48.998Z,98631.11
2019-03-01T07:14:18.936Z,98639.30
2019-03-01T07:16:49.211Z,98642.23
2019-03-01T07:19:21.038Z,98639.33
2019-03-01T07:21:58.087Z,98646.64
2019-03-01T07:24:28.319Z,98650.89
2019-03-01T07:26:57.477Z,98646.37
2019-03-01T07:29:26.835Z,98649.11
2019-03-01T07:31:56.001Z,98646.47
2019-03-01T07:34:25.545Z,98648.56
2019-03-01T07:36:56.291Z,98649.41
2019-03-01T07:39:25.926Z,98652.14
2019-03-01T07:41:55.978Z,98650.59
2019-03-01T07:44:25.467Z,98653.47
2019-03-01T07:46:54.638Z,98649.20
2019-03-01T07:49:23.962Z,98651.09
2019-03-01T07:51:53.719Z,98650.99
2019-03-01T07:54:23.031Z,98659.75
2019-03-01T07:56:52.250Z,98663.88
2019-03-01T07:59:24.070Z,98664.03
2019-03-01T08:01:55.911Z,98667.98
2019-03-01T08:04:28.847Z,98661.42
2019-03-01T08:06:57.354Z,98655.59
2019-03-01T08:09:27.055Z,98663.55
2019-03-01T08:11:56.242Z,98667.41
2019-03-01T08:14:27.994Z,98664.52
2019-03-01T08:16:57.129Z,98666.38
2019-03-01T08:19:27.521Z,98663.44
2019-03-01T08:21:58.938Z,98668.34
2019-03-01T08:24:28.400Z,98657.63
2019-03-01T08:26:57.610Z,98659.08
2019-03-01T08:29:26.815Z,98658.34
2019-03-01T08:31:56.732Z,98662.81
2019-03-01T08:34:26.061Z,98656.41
2019-03-01T08:36:57.233Z,98661.57
2019-03-01T08:39:26.446Z,98667.83
2019-03-01T08:42:00.180Z,98667.16
2019-03-01T08:44:27.646Z,98678.31
2019-03-01T08:46:58.852Z,98674.58
2019-03-01T08:49:28.408Z,98672.34
2019-03-01T08:51:58.568Z,98671.59
2019-03-01T08:54:31.033Z,98674.48
2019-03-01T08:57:04.615Z,98680.38
2019-03-01T08:59:33.847Z,98669.47
2019-03-01T09:02:03.044Z,98672.09
2019-03-01T09:04:37.809Z,98678.30
2019-03-01T09:07:03.924Z,98672.31
2019-03-01T09:09:33.354Z,98670.97
2019-03-01T09:12:03.484Z,98664.03
2019-03-01T09:14:33.139Z,98665.20
2019-03-01T09:17:02.368Z,98659.28
2019-03-01T09:19:32.378Z,98658.84
2019-03-01T09:22:01.556Z,98655.83
2019-03-01T09:24:31.556Z,98657.91
2019-03-01T09:27:00.733Z,98670.96
2019-03-01T09:29:30.191Z,98672.44
2019-03-01T09:31:59.385Z,98677.60
2019-03-01T09:34:31.867Z,98675.92
2019-03-01T09:36:59.947Z,98675.78
2019-03-01T09:39:29.130Z,98681.40
2019-03-01T09:42:04.282Z,98678.16
2019-03-01T09:44:29.223Z,98678.86
2019-03-01T09:47:01.365Z,98685.36
2019-03-01T09:49:30.323Z,98687.75
2019-03-01T09:52:00.539Z,98678.12
2019-03-01T09:54:31.172Z,98676.66
2019-03-01T09:57:00.355Z,98680.51
2019-03-01T09:59:31.252Z,98684.06
2019-03-01T10:02:02.226Z,98681.58
2019-03-01T10:04:31.424Z,98674.80
2019-03-01T10:07:00.606Z,98677.64
2019-03-01T10:09:29.799Z,98679.08
2019-03-01T10:11:58.988Z,98679.33
2019-03-01T10:14:28.997Z,98680.91
2019-03-01T10:16:58.157Z,98677.67
2019-03-01T10:19:27.398Z,98681.64
2019-03-01T10:21:57.357Z,98675.39
2019-03-01T10:24:26.545Z,98674.04
2019-03-01T10:26:55.719Z,98678.27
2019-03-01T10:29:24.934Z,98674.83
2019-03-01T10:31:54.436Z,98667.93
2019-03-01T10:34:23.644Z,98671.06
2019-03-01T10:36:53.056Z,98669.50
2019-03-01T10:39:24.635Z,98666.89
2019-03-01T10:41:53.819Z,98673.28
2019-03-01T10:44:22.999Z,98674.07
2019-03-01T10:46:53.569Z,98676.75
2019-03-01T10:49:22.779Z,98674.37
2019-03-01T10:51:52.812Z,98670.70
2019-03-01T10:54:24.645Z,98669.22
2019-03-01T10:56:54.059Z,98672.31
2019-03-01T10:59:23.253Z,98678.94
2019-03-01T11:01:52.436Z,98678.48
2019-03-01T11:04:21.954Z,98676.22
2019-03-01T11:06:51.245Z,98680.38
2019-03-01T11:09:22.504Z,98691.86
2019-03-01T11:11:52.793Z,98691.21
2019-03-01T11:14:28.802Z,98693.62
2019-03-01T11:16:58.553Z,98695.62
2019-03-01T11:19:28.938Z,98702.45
2019-03-01T11:22:00.358Z,98700.14
2019-03-01T11:24:30.115Z,98691.24
2019-03-01T11:26:59.582Z,98701.66
2019-03-01T11:29:34.736Z,98706.23
2019-03-01T11:32:04.198Z,98708.45
2019-03-01T11:34:36.295Z,98707.05
2019-03-01T11:37:07.357Z,98711.27
2019-03-01T11:39:38.666Z,98705.47
2019-03-01T11:42:08.598Z,98711.83
2019-03-01T11:44:38.374Z,98711.60
2019-03-01T11:47:08.211Z,98714.25
2019-03-01T11:49:37.352Z,98718.47
2019-03-01T11:52:06.919Z,98713.96
2019-03-01T11:54:36.373Z,98712.48
2019-03-01T11:57:06.812Z,98707.97
2019-03-01T11:59:35.971Z,98713.64
2019-03-01T12:02:09.197Z,98706.69
2019-03-01T12:04:39.166Z,98698.33
2019-03-01T12:07:09.870Z,98696.91
2019-03-01T12:09:39.039Z,98695.23
2019-03-01T12:12:08.283Z,98698.60
2019-03-01T12:14:37.487Z,98698.56
2019-03-01T12:17:06.679Z,98696.16
2019-03-01T12:19:35.878Z,98696.17
2019-03-01T12:22:05.796Z,98699.77
2019-03-01T12:24:35.261Z,98699.72
2019-03-01T12:27:05.357Z,98699.48
2019-03-01T12:29:35.062Z,98698.03
2019-03-01T12:32:06.386Z,98702.91
2019-03-01T12:34:35.551Z,98705.05
2019-03-01T12:37:05.133Z,98704.72
2019-03-01T12:39:35.370Z,98707.22
2019-03-01T12:42:06.941Z,98711.80
2019-03-01T12:44:36.377Z,98712.04
2019-03-01T12:47:07.925Z,98712.12
2019-03-01T12:49:37.766Z,98716.38
2019-03-01T12:52:07.244Z,98724.09
2019-03-01T12:54:37.437Z,98730.44
2019-03-01T12:57:08.096Z,98725.28
2019-03-01T12:59:41.434Z,98736.53
2019-03-01T13:02:13.462Z,98733.83
2019-03-01T13:04:45.042Z,98737.45
2019-03-01T13:07:14.482Z,98748.78
2019-03-01T13:09:43.681Z,98736.75
2019-03-01T13:12:13.647Z,98738.16
2019-03-01T13:14:45.222Z,98736.50
2019-03-01T13:17:14.923Z,98745.06
2019-03-01T13:19:45.003Z,98746.62
2019-03-01T13:22:15.215Z,98750.41
2019-03-01T13:24:44.704Z,98750.24
2019-03-01T13:27:17.484Z,98763.66
2019-03-01T13:29:49.268Z,98768.95
2019-03-01T13:32:22.854Z,98768.48
2019-03-01T13:34:54.341Z,98770.03
2019-03-01T13:37:28.003Z,98770.94
2019-03-01T13:40:00.682Z,98767.58
2019-03-01T13:42:31.064Z,98781.41
2019-03-01T13:45:01.768Z,98783.91
2019-03-01T13:47:34.154Z,98782.81
2019-03-01T13:50:06.779Z,98780.78
2019-03-01T13:52:35.033Z,98784.55
2019-03-01T13:55:05.379Z,98781.69
2019-03-01T13:57:37.254Z,98782.64
2019-03-01T14:00:08.292Z,98791.62
2019-03-01T14:02:58.886Z,98798.16
2019-03-01T14:05:28.177Z,98802.17
2019-03-01T14:08:08.709Z,98805.39
2019-03-01T14:10:32.044Z,98814.81
2019-03-01T14:13:01.884Z,98820.70
2019-03-01T14:15:50.544Z,98827.46
2019-03-01T14:18:20.772Z,98831.11
2019-03-01T14:20:49.991Z,98849.99
2019-03-01T14:23:21.354Z,98851.32
2019-03-01T14:25:51.456Z,98848.99
2019-03-01T14:28:21.242Z,98846.14
2019-03-01T14:30:51.193Z,98866.74
2019-03-01T14:33:21.132Z,98881.45
2019-03-01T14:35:50.579Z,98865.89
2019-03-01T14:38:26.775Z,98872.30
2019-03-01T14:40:59.617Z,98874.73
2019-03-01T14:43:28.856Z,98883.55
2019-03-01T14:45:58.135Z,98880.70
2019-03-01T14:48:28.262Z,98887.51
2019-03-01T14:51:00.245Z,98880.91
2019-03-01T14:53:35.936Z,98880.06
2019-03-01T14:56:15.191Z,98887.20
2019-03-01T14:59:02.219Z,98886.56
2019-03-01T15:01:44.384Z,98884.39
2019-03-01T15:04:14.399Z,98878.46
2019-03-01T15:06:43.598Z,98887.98
2019-03-01T15:09:16.930Z,98877.21
2019-03-01T15:11:52.233Z,98874.94
2019-03-01T15:14:26.169Z,98879.95
2019-03-01T15:16:58.764Z,98878.27
2019-03-01T15:19:29.361Z,98882.59
2019-03-01T15:22:00.674Z,98879.11
2019-03-01T15:24:33.173Z,98893.17
2019-03-01T15:27:03.984Z,98885.41
2019-03-01T15:29:34.698Z,98893.47
2019-03-01T15:32:04.979Z,98901.19
2019-03-01T15:34:40.839Z,98898.82
2019-03-01T15:37:10.556Z,98898.45
2019-03-01T15:39:40.015Z,98900.34
2019-03-01T15:42:10.604Z,98907.89
2019-03-01T15:44:41.677Z,98899.59
2019-03-01T15:47:11.506Z,98913.17
2019-03-01T15:49:40.932Z,98909.78
2019-03-01T15:52:13.784Z,98911.00
2019-03-01T15:54:42.488Z,98919.77
2019-03-01T15:57:18.879Z,98923.66
2019-03-01T15:59:48.933Z,98930.73
2019-03-01T16:02:20.567Z,98928.43
2019-03-01T16:04:50.024Z,98932.47
2019-03-01T16:07:19.484Z,98935.67
2019-03-01T16:09:50.349Z,98943.13
2019-03-01T16:12:23.890Z,98954.25
2019-03-01T16:14:53.458Z,98949.80
2019-03-01T16:17:24.614Z,98942.19
2019-03-01T16:19:56.892Z,98950.02
2019-03-01T16:22:26.360Z,98946.12
2019-03-01T16:24:56.142Z,98956.97
2019-03-01T16:27:25.585Z,98962.59
2019-03-01T16:29:54.757Z,98959.48
2019-03-01T16:32:24.293Z,98963.34
2019-03-01T16:34:53.703Z,98966.65
2019-03-01T16:37:26.063Z,98963.16
2019-03-01T16:39:56.227Z,98971.45
2019-03-01T16:42:27.630Z,98969.91
2019-03-01T16:44:57.397Z,98974.09
2019-03-01T16:47:26.577Z,98965.70
2019-03-01T16:49:58.896Z,98975.09
2019-03-01T16:52:30.299Z,98969.91
2019-03-01T16:55:00.314Z,98983.95
2019-03-01T16:57:29.492Z,98982.27
2019-03-01T16:59:58.945Z,98996.77
2019-03-01T17:02:28.537Z,98999.88
2019-03-01T17:04:59.761Z,99007.82
2019-03-01T17:07:29.212Z,99004.94
2019-03-01T17:09:58.383Z,99013.33
2019-03-01T17:12:27.577Z,99015.02
2019-03-01T17:14:56.757Z,99016.34
2019-03-01T17:17:26.686Z,99015.73
2019-03-01T17:20:02.298Z,99012.06
2019-03-01T17:22:31.442Z,99009.42
2019-03-01T17:25:02.036Z,99015.36
2019-03-01T17:27:32.087Z,99021.02
2019-03-01T17:30:02.073Z,99023.27
2019-03-01T17:32:39.802Z,99023.37
2019-03-01T17:35:13.217Z,99034.20
2019-03-01T17:37:43.939Z,99039.39
2019-03-01T17:40:15.638Z,99039.15
2019-03-01T17:42:44.879Z,99036.47
2019-03-01T17:45:17.379Z,99040.24
2019-03-01T17:47:48.585Z,99049.08
2019-03-01T17:50:21.015Z,99054.22
2019-03-01T17:52:51.225Z,99056.16
2019-03-01T17:55:21.234Z,99055.68
2019-03-01T17:57:54.183Z,99058.13
2019-03-01T18:00:31.337Z,99061.58
2019-03-01T18:03:00.879Z,99062.52
2019-03-01T18:05:30.616Z,99071.28
2019-03-01T18:08:03.707Z,99077.31
2019-03-01T18:10:32.110Z,99075.14
2019-03-01T18:13:02.246Z,99087.34
2019-03-01T18:15:32.811Z,99088.25
2019-03-01T18:18:02.054Z,99086.49
2019-03-01T18:20:34.010Z,99092.61
2019-03-01T18:23:03.616Z,99092.44
2019-03-01T18:25:32.913Z,99088.01
2019-03-01T18:28:03.722Z,99090.84
2019-03-01T18:30:33.614Z,99090.55
2019-03-01T18:33:04.018Z,99090.65
2019-03-01T18:35:33.676Z,99086.83
2019-03-01T18:38:02.896Z,99088.86
2019-03-01T18:40:32.137Z,99091.31
2019-03-01T18:43:01.666Z,99098.38
2019-03-01T18:45:31.120Z,99102.34
2019-03-01T18:48:00.310Z,99109.64
2019-03-01T18:50:32.312Z,99109.08
2019-03-01T18:53:03.580Z,99113.55
2019-03-01T18:55:32.832Z,99113.92
2019-03-01T18:58:02.651Z,99113.36
2019-03-01T19:00:36.952Z,99108.27
2019-03-01T19:03:06.419Z,99120.23
2019-03-01T19:05:36.638Z,99124.42
2019-03-01T19:08:07.567Z,99118.47
2019-03-01T19:10:36.781Z,99125.86
2019-03-01T19:13:05.980Z,99125.48
2019-03-01T19:15:35.267Z,99132.07
2019-03-01T19:18:04.537Z,99131.87
2019-03-01T19:20:33.887Z,99134.42
2019-03-01T19:23:03.421Z,99139.16
2019-03-01T19:25:32.599Z,99134.83
2019-03-01T19:28:03.078Z,99132.77
2019-03-01T19:30:32.601Z,99136.95
2019-03-01T19:33:02.214Z,99132.02
2019-03-01T19:35:32.299Z,99130.61
2019-03-01T19:38:02.872Z,99139.30
2019-03-01T19:40:33.294Z,99137.77
2019-03-01T19:43:02.481Z,99138.08
2019-03-01T19:45:31.691Z,99148.63
2019-03-01T19:48:03.243Z,99147.09
2019-03-01T19:50:32.052Z,99150.28
2019-03-01T19:53:01.282Z,99149.43
2019-03-01T19:55:30.620Z,99155.30
2019-03-01T19:58:00.628Z,99154.62
2019-03-01T20:00:29.890Z,99160.74
2019-03-01T20:03:01.303Z,99159.59
2019-03-01T20:05:31.992Z,99177.56
2019-03-01T20:08:01.410Z,99188.25
2019-03-01T20:10:31.558Z,99186.52
2019-03-01T20:13:09.448Z,99196.73
2019-03-01T20:15:39.356Z,99183.81
2019-03-01T20:18:09.738Z,99199.34
2019-03-01T20:20:40.917Z,99200.44
2019-03-01T20:23:11.348Z,99202.30
2019-03-01T20:25:40.604Z,99198.81
2019-03-01T20:28:11.605Z,99198.17
2019-03-01T20:30:41.027Z,99200.58
2019-03-01T20:33:10.762Z,99194.20
2019-03-01T20:35:41.878Z,99200.77
2019-03-01T20:38:11.143Z,99202.71
2019-03-01T20:40:40.336Z,99207.59
2019-03-01T20:43:10.625Z,99207.98
2019-03-01T20:45:39.825Z,99213.01
2019-03-01T20:48:09.041Z,99216.27
2019-03-01T20:50:38.453Z,99217.66
2019-03-01T20:53:10.057Z,99225.70
2019-03-01T20:55:38.755Z,99223.84
2019-03-01T20:58:08.032Z,99225.16
2019-03-01T21:00:37.593Z,99226.67
2019-03-01T21:03:07.079Z,99226.94
2019-03-01T21:05:37.304Z,99232.67
2019-03-01T21:08:06.722Z,99239.06
2019-03-01T21:10:36.222Z,99230.47
2019-03-01T21:13:08.705Z,99233.56
2019-03-01T21:15:38.682Z,99240.95
2019-03-01T21:18:08.296Z,99239.29
2019-03-01T21:20:37.494Z,99242.50
2019-03-01T21:23:07.800Z,99234.84
2019-03-01T21:25:39.711Z,99238.86
2019-03-01T21:28:08.493Z,99243.27
2019-03-01T21:30:37.690Z,99237.01
2019-03-01T21:33:06.857Z,99242.34
2019-03-01T21:35:37.171Z,99238.40
2019-03-01T21:38:06.555Z,99239.71
2019-03-01T21:40:37.020Z,99240.95
2019-03-01T21:43:06.575Z,99235.92
2019-03-01T21:45:35.947Z,99238.70
2019-03-01T21:48:05.686Z,99237.47
2019-03-01T21:50:34.962Z,99241.34
2019-03-01T21:53:05.599Z,99236.34
2019-03-01T21:55:35.703Z,99230.70
2019-03-01T21:58:07.569Z,99238.13
2019-03-01T22:00:39.651Z,99230.15
2019-03-01T22:03:09.188Z,99235.72
2019-03-01T22:05:41.194Z,99238.28
2019-03-01T22:08:12.992Z,99230.31
2019-03-01T22:10:44.943Z,99235.91
2019-03-01T22:13:14.116Z,99231.66
2019-03-01T22:15:45.166Z,99236.14
2019-03-01T22:18:14.407Z,99238.50
2019-03-01T22:20:44.811Z,99236.16
2019-03-01T22:23:15.788Z,99237.55
2019-03-01T22:25:45.690Z,99243.78
2019-03-01T22:28:14.856Z,99241.96
2019-03-01T22:30:45.340Z,99252.81
2019-03-01T22:33:17.389Z,99253.28
2019-03-01T22:35:45.786Z,99256.76
2019-03-01T22:38:16.149Z,99259.23
2019-03-01T22:40:48.298Z,99258.91
2019-03-01T22:43:17.806Z,99265.09
2019-03-01T22:45:48.849Z,99269.97
2019-03-01T22:48:17.964Z,99262.65
2019-03-01T22:50:48.230Z,99268.65
2019-03-01T22:53:18.225Z,99268.11
2019-03-01T22:55:47.784Z,99272.39
2019-03-01T22:58:16.993Z,99274.38
2019-03-01T23:01:23.073Z,99269.28
2019-03-01T23:04:00.270Z,99265.09
2019-03-01T23:06:29.965Z,99264.09
2019-03-01T23:09:00.860Z,99265.22
2019-03-01T23:11:32.409Z,99264.61
2019-03-01T23:14:02.287Z,99266.46
2019-03-01T23:16:31.450Z,99263.44
2019-03-01T23:19:00.656Z,99267.70
2019-03-01T23:21:32.690Z,99268.68
2019-03-01T23:24:01.104Z,99269.84
2019-03-01T23:26:31.368Z,99272.21
2019-03-01T23:29:00.585Z,99265.21
2019-03-01T23:31:29.775Z,99259.95
2019-03-01T23:33:59.802Z,99257.30
2019-03-01T23:36:29.740Z,99253.48
2019-03-01T23:38:59.529Z,99258.03
2019-03-01T23:41:30.075Z,99256.59
2019-03-01T23:44:02.916Z,99250.94
2019-03-01T23:46:30.979Z,99255.42
2019-03-01T23:49:06.279Z,99256.34
2019-03-01T23:51:31.051Z,99253.26
2019-03-01T23:54:00.240Z,99246.22
2019-03-01T23:56:30.567Z,99251.35
2019-03-01T23:59:00.114Z,99250.76
